sensor_id;sensor_type;location;lat;lon;timestamp;P1;durP1;ratioP1;P2;durP2;ratioP2
69220;SDS011;56331;51.992;20.910;2022-10-22T00:01:26;9.70;;;6.55;;
69220;SDS011;56331;51.992;20.910;2022-10-22T00:03:53;11.10;;;7.35;;
69220;SDS011;56331;51.992;20.910;2022-10-22T00:06:20;11.10;;;7.22;;
69220;SDS011;56331;51.992;20.910;2022-10-22T00:08:46;9.68;;;7.20;;
69220;SDS011;56331;51.992;20.910;2022-10-22T00:11:13;9.50;;;6.78;;
69220;SDS011;56331;51.992;20.910;2022-10-22T00:13:42;9.80;;;6.95;;
69220;SDS011;56331;51.992;20.910;2022-10-22T00:16:09;9.80;;;6.55;;
69220;SDS011;56331;51.992;20.910;2022-10-22T00:18:36;11.90;;;7.15;;
69220;SDS011;56331;51.992;20.910;2022-10-22T00:21:04;8.38;;;6.00;;
69220;SDS011;56331;51.992;20.910;2022-10-22T00:23:31;10.85;;;6.50;;
69220;SDS011;56331;51.992;20.910;2022-10-22T00:25:58;9.40;;;6.33;;
69220;SDS011;56331;51.992;20.910;2022-10-22T00:28:25;10.03;;;6.65;;
69220;SDS011;56331;51.992;20.910;2022-10-22T00:30:56;10.13;;;7.10;;
69220;SDS011;56331;51.992;20.910;2022-10-22T00:33:23;10.65;;;6.83;;
69220;SDS011;56331;51.992;20.910;2022-10-22T00:35:50;9.78;;;7.00;;
69220;SDS011;56331;51.992;20.910;2022-10-22T00:38:16;9.68;;;6.60;;
69220;SDS011;56331;51.992;20.910;2022-10-22T00:40:42;11.12;;;6.75;;
69220;SDS011;56331;51.992;20.910;2022-10-22T00:43:13;8.95;;;6.62;;
69220;SDS011;56331;51.992;20.910;2022-10-22T00:45:41;12.00;;;7.50;;
69220;SDS011;56331;51.992;20.910;2022-10-22T00:48:12;11.95;;;7.10;;
69220;SDS011;56331;51.992;20.910;2022-10-22T00:50:48;9.38;;;6.50;;
69220;SDS011;56331;51.992;20.910;2022-10-22T00:53:21;8.85;;;6.20;;
69220;SDS011;56331;51.992;20.910;2022-10-22T00:55:51;8.98;;;6.08;;
69220;SDS011;56331;51.992;20.910;2022-10-22T00:58:19;10.78;;;7.22;;
69220;SDS011;56331;51.992;20.910;2022-10-22T01:00:49;11.35;;;7.12;;
69220;SDS011;56331;51.992;20.910;2022-10-22T01:03:16;9.50;;;6.67;;
69220;SDS011;56331;51.992;20.910;2022-10-22T01:05:43;10.60;;;7.15;;
69220;SDS011;56331;51.992;20.910;2022-10-22T01:10:52;8.90;;;6.25;;
69220;SDS011;56331;51.992;20.910;2022-10-22T01:13:21;9.45;;;6.47;;
69220;SDS011;56331;51.992;20.910;2022-10-22T01:21:30;9.98;;;6.58;;
69220;SDS011;56331;51.992;20.910;2022-10-22T01:31:28;9.10;;;6.03;;
69220;SDS011;56331;51.992;20.910;2022-10-22T01:33:56;9.63;;;6.53;;
69220;SDS011;56331;51.992;20.910;2022-10-22T01:36:26;10.48;;;6.60;;
69220;SDS011;56331;51.992;20.910;2022-10-22T01:38:54;9.25;;;6.28;;
69220;SDS011;56331;51.992;20.910;2022-10-22T01:41:21;11.10;;;6.50;;
69220;SDS011;56331;51.992;20.910;2022-10-22T01:43:48;8.73;;;6.35;;
69220;SDS011;56331;51.992;20.910;2022-10-22T01:46:14;10.95;;;6.37;;
69220;SDS011;56331;51.992;20.910;2022-10-22T01:54:34;9.10;;;6.20;;
69220;SDS011;56331;51.992;20.910;2022-10-22T02:00:11;8.38;;;6.25;;
69220;SDS011;56331;51.992;20.910;2022-10-22T02:05:18;8.55;;;5.83;;
69220;SDS011;56331;51.992;20.910;2022-10-22T02:07:56;10.00;;;6.55;;
69220;SDS011;56331;51.992;20.910;2022-10-22T02:10:24;10.58;;;6.47;;
69220;SDS011;56331;51.992;20.910;2022-10-22T02:12:52;8.05;;;6.00;;
69220;SDS011;56331;51.992;20.910;2022-10-22T02:15:21;10.43;;;7.05;;
69220;SDS011;56331;51.992;20.910;2022-10-22T02:17:50;9.08;;;5.85;;
69220;SDS011;56331;51.992;20.910;2022-10-22T02:20:22;10.38;;;6.33;;
69220;SDS011;56331;51.992;20.910;2022-10-22T02:22:49;9.40;;;6.10;;
69220;SDS011;56331;51.992;20.910;2022-10-22T02:25:16;10.10;;;6.55;;
69220;SDS011;56331;51.992;20.910;2022-10-22T02:33:05;8.05;;;5.65;;
69220;SDS011;56331;51.992;20.910;2022-10-22T02:35:33;9.65;;;6.50;;
69220;SDS011;56331;51.992;20.910;2022-10-22T02:38:00;8.08;;;5.50;;
69220;SDS011;56331;51.992;20.910;2022-10-22T02:40:29;8.90;;;6.15;;
69220;SDS011;56331;51.992;20.910;2022-10-22T02:42:55;8.10;;;5.90;;
69220;SDS011;56331;51.992;20.910;2022-10-22T02:45:22;10.23;;;6.30;;
69220;SDS011;56331;51.992;20.910;2022-10-22T02:47:49;8.48;;;5.55;;
69220;SDS011;56331;51.992;20.910;2022-10-22T02:50:18;7.60;;;5.55;;
69220;SDS011;56331;51.992;20.910;2022-10-22T02:52:44;8.08;;;6.20;;
69220;SDS011;56331;51.992;20.910;2022-10-22T02:55:10;9.03;;;6.35;;
69220;SDS011;56331;51.992;20.910;2022-10-22T02:57:37;7.78;;;6.00;;
69220;SDS011;56331;51.992;20.910;2022-10-22T03:00:04;7.05;;;5.42;;
69220;SDS011;56331;51.992;20.910;2022-10-22T03:02:32;8.10;;;5.28;;
69220;SDS011;56331;51.992;20.910;2022-10-22T03:04:58;8.30;;;6.08;;
69220;SDS011;56331;51.992;20.910;2022-10-22T03:07:25;8.95;;;5.78;;
69220;SDS011;56331;51.992;20.910;2022-10-22T03:09:51;6.80;;;5.17;;
69220;SDS011;56331;51.992;20.910;2022-10-22T03:12:17;7.58;;;5.47;;
69220;SDS011;56331;51.992;20.910;2022-10-22T03:14:44;7.30;;;5.42;;
69220;SDS011;56331;51.992;20.910;2022-10-22T03:17:10;6.85;;;5.00;;
69220;SDS011;56331;51.992;20.910;2022-10-22T03:19:37;6.72;;;5.30;;
69220;SDS011;56331;51.992;20.910;2022-10-22T03:22:09;6.50;;;4.90;;
69220;SDS011;56331;51.992;20.910;2022-10-22T03:24:46;6.87;;;4.67;;
69220;SDS011;56331;51.992;20.910;2022-10-22T03:27:09;6.95;;;5.15;;
69220;SDS011;56331;51.992;20.910;2022-10-22T03:29:40;6.35;;;4.90;;
69220;SDS011;56331;51.992;20.910;2022-10-22T03:32:07;7.00;;;5.03;;
69220;SDS011;56331;51.992;20.910;2022-10-22T03:34:33;6.78;;;4.67;;
69220;SDS011;56331;51.992;20.910;2022-10-22T03:37:00;6.25;;;4.80;;
69220;SDS011;56331;51.992;20.910;2022-10-22T03:39:28;6.42;;;4.65;;
69220;SDS011;56331;51.992;20.910;2022-10-22T03:41:56;6.65;;;4.60;;
69220;SDS011;56331;51.992;20.910;2022-10-22T03:44:24;6.03;;;4.67;;
69220;SDS011;56331;51.992;20.910;2022-10-22T03:46:51;6.60;;;4.78;;
69220;SDS011;56331;51.992;20.910;2022-10-22T03:49:17;5.85;;;4.40;;
69220;SDS011;56331;51.992;20.910;2022-10-22T03:51:43;7.00;;;4.75;;
69220;SDS011;56331;51.992;20.910;2022-10-22T03:54:10;6.85;;;4.72;;
69220;SDS011;56331;51.992;20.910;2022-10-22T03:56:36;7.05;;;4.55;;
69220;SDS011;56331;51.992;20.910;2022-10-22T03:59:03;7.33;;;5.05;;
69220;SDS011;56331;51.992;20.910;2022-10-22T04:01:30;6.28;;;4.70;;
69220;SDS011;56331;51.992;20.910;2022-10-22T04:03:56;6.12;;;3.85;;
69220;SDS011;56331;51.992;20.910;2022-10-22T04:06:24;6.10;;;4.67;;
69220;SDS011;56331;51.992;20.910;2022-10-22T04:08:50;6.50;;;4.37;;
69220;SDS011;56331;51.992;20.910;2022-10-22T04:11:16;5.87;;;4.65;;
69220;SDS011;56331;51.992;20.910;2022-10-22T04:13:43;7.33;;;4.40;;
69220;SDS011;56331;51.992;20.910;2022-10-22T04:16:12;6.00;;;4.28;;
69220;SDS011;56331;51.992;20.910;2022-10-22T04:18:40;6.30;;;4.58;;
69220;SDS011;56331;51.992;20.910;2022-10-22T04:21:07;6.22;;;4.65;;
69220;SDS011;56331;51.992;20.910;2022-10-22T04:23:35;6.28;;;4.62;;
69220;SDS011;56331;51.992;20.910;2022-10-22T04:26:04;4.87;;;4.00;;
69220;SDS011;56331;51.992;20.910;2022-10-22T04:28:33;5.60;;;3.92;;
69220;SDS011;56331;51.992;20.910;2022-10-22T04:31:00;5.37;;;4.00;;
69220;SDS011;56331;51.992;20.910;2022-10-22T04:33:28;6.67;;;4.50;;
69220;SDS011;56331;51.992;20.910;2022-10-22T04:35:54;5.78;;;4.10;;
69220;SDS011;56331;51.992;20.910;2022-10-22T04:38:21;5.47;;;3.98;;
69220;SDS011;56331;51.992;20.910;2022-10-22T04:40:47;6.60;;;4.53;;
69220;SDS011;56331;51.992;20.910;2022-10-22T04:43:13;6.80;;;4.42;;
69220;SDS011;56331;51.992;20.910;2022-10-22T04:45:40;5.70;;;4.28;;
69220;SDS011;56331;51.992;20.910;2022-10-22T04:48:06;6.00;;;4.17;;
69220;SDS011;56331;51.992;20.910;2022-10-22T04:50:32;4.70;;;3.95;;
69220;SDS011;56331;51.992;20.910;2022-10-22T04:52:59;5.78;;;4.22;;
69220;SDS011;56331;51.992;20.910;2022-10-22T04:55:25;5.00;;;3.77;;
69220;SDS011;56331;51.992;20.910;2022-10-22T04:57:52;6.03;;;4.22;;
69220;SDS011;56331;51.992;20.910;2022-10-22T05:00:18;6.22;;;4.70;;
69220;SDS011;56331;51.992;20.910;2022-10-22T05:02:47;5.80;;;4.15;;
69220;SDS011;56331;51.992;20.910;2022-10-22T05:05:16;5.25;;;4.47;;
69220;SDS011;56331;51.992;20.910;2022-10-22T05:07:42;6.22;;;4.60;;
69220;SDS011;56331;51.992;20.910;2022-10-22T05:10:09;5.40;;;4.58;;
69220;SDS011;56331;51.992;20.910;2022-10-22T05:12:35;5.65;;;4.40;;
69220;SDS011;56331;51.992;20.910;2022-10-22T05:15:01;5.55;;;4.40;;
69220;SDS011;56331;51.992;20.910;2022-10-22T05:17:28;6.10;;;4.45;;
69220;SDS011;56331;51.992;20.910;2022-10-22T05:19:55;7.42;;;5.22;;
69220;SDS011;56331;51.992;20.910;2022-10-22T05:22:21;6.70;;;4.83;;
69220;SDS011;56331;51.992;20.910;2022-10-22T05:24:47;5.30;;;4.30;;
69220;SDS011;56331;51.992;20.910;2022-10-22T05:27:14;6.28;;;4.75;;
69220;SDS011;56331;51.992;20.910;2022-10-22T05:29:42;6.58;;;4.72;;
69220;SDS011;56331;51.992;20.910;2022-10-22T05:32:08;6.65;;;4.70;;
69220;SDS011;56331;51.992;20.910;2022-10-22T05:34:35;5.58;;;4.25;;
69220;SDS011;56331;51.992;20.910;2022-10-22T05:37:01;6.22;;;4.62;;
69220;SDS011;56331;51.992;20.910;2022-10-22T05:39:28;7.17;;;4.87;;
69220;SDS011;56331;51.992;20.910;2022-10-22T05:41:55;6.35;;;4.42;;
69220;SDS011;56331;51.992;20.910;2022-10-22T05:44:21;6.85;;;4.90;;
69220;SDS011;56331;51.992;20.910;2022-10-22T05:46:48;5.78;;;4.15;;
69220;SDS011;56331;51.992;20.910;2022-10-22T05:49:14;6.17;;;4.83;;
69220;SDS011;56331;51.992;20.910;2022-10-22T05:51:40;5.85;;;4.55;;
69220;SDS011;56331;51.992;20.910;2022-10-22T05:54:07;7.28;;;4.72;;
69220;SDS011;56331;51.992;20.910;2022-10-22T05:56:37;7.45;;;4.95;;
69220;SDS011;56331;51.992;20.910;2022-10-22T05:59:03;6.35;;;4.90;;
69220;SDS011;56331;51.992;20.910;2022-10-22T06:01:31;5.42;;;4.37;;
69220;SDS011;56331;51.992;20.910;2022-10-22T06:04:00;5.60;;;4.12;;
69220;SDS011;56331;51.992;20.910;2022-10-22T06:06:36;6.08;;;4.60;;
69220;SDS011;56331;51.992;20.910;2022-10-22T06:09:06;6.25;;;4.85;;
69220;SDS011;56331;51.992;20.910;2022-10-22T06:11:47;5.42;;;4.15;;
69220;SDS011;56331;51.992;20.910;2022-10-22T06:14:15;6.78;;;4.80;;
69220;SDS011;56331;51.992;20.910;2022-10-22T06:16:42;5.75;;;4.30;;
69220;SDS011;56331;51.992;20.910;2022-10-22T06:19:14;6.05;;;3.72;;
69220;SDS011;56331;51.992;20.910;2022-10-22T06:21:38;5.62;;;4.22;;
69220;SDS011;56331;51.992;20.910;2022-10-22T06:24:05;6.50;;;4.12;;
69220;SDS011;56331;51.992;20.910;2022-10-22T06:26:32;6.28;;;4.30;;
69220;SDS011;56331;51.992;20.910;2022-10-22T06:28:58;5.62;;;4.35;;
69220;SDS011;56331;51.992;20.910;2022-10-22T06:31:25;5.70;;;4.17;;
69220;SDS011;56331;51.992;20.910;2022-10-22T06:33:52;4.75;;;3.70;;
69220;SDS011;56331;51.992;20.910;2022-10-22T06:36:19;5.87;;;4.10;;
69220;SDS011;56331;51.992;20.910;2022-10-22T06:38:50;6.22;;;4.37;;
69220;SDS011;56331;51.992;20.910;2022-10-22T06:41:19;6.83;;;4.20;;
69220;SDS011;56331;51.992;20.910;2022-10-22T06:43:46;5.80;;;4.33;;
69220;SDS011;56331;51.992;20.910;2022-10-22T06:46:14;6.00;;;4.10;;
69220;SDS011;56331;51.992;20.910;2022-10-22T06:48:42;6.55;;;4.42;;
69220;SDS011;56331;51.992;20.910;2022-10-22T06:51:12;4.67;;;3.80;;
69220;SDS011;56331;51.992;20.910;2022-10-22T06:53:39;6.45;;;4.00;;
69220;SDS011;56331;51.992;20.910;2022-10-22T06:56:06;4.62;;;4.10;;
69220;SDS011;56331;51.992;20.910;2022-10-22T06:58:34;6.17;;;4.33;;
69220;SDS011;56331;51.992;20.910;2022-10-22T07:01:08;6.53;;;4.67;;
69220;SDS011;56331;51.992;20.910;2022-10-22T07:03:38;6.50;;;4.20;;
69220;SDS011;56331;51.992;20.910;2022-10-22T07:06:07;6.90;;;4.72;;
69220;SDS011;56331;51.992;20.910;2022-10-22T07:08:36;5.45;;;4.17;;
69220;SDS011;56331;51.992;20.910;2022-10-22T07:13:41;7.15;;;4.28;;
69220;SDS011;56331;51.992;20.910;2022-10-22T07:16:08;6.50;;;4.50;;
69220;SDS011;56331;51.992;20.910;2022-10-22T07:18:35;8.23;;;5.00;;
69220;SDS011;56331;51.992;20.910;2022-10-22T07:21:02;6.17;;;4.28;;
69220;SDS011;56331;51.992;20.910;2022-10-22T07:23:30;7.00;;;4.65;;
69220;SDS011;56331;51.992;20.910;2022-10-22T07:25:57;7.50;;;5.90;;
69220;SDS011;56331;51.992;20.910;2022-10-22T07:28:23;8.13;;;5.80;;
69220;SDS011;56331;51.992;20.910;2022-10-22T07:30:50;7.15;;;5.00;;
69220;SDS011;56331;51.992;20.910;2022-10-22T07:33:16;7.25;;;5.03;;
69220;SDS011;56331;51.992;20.910;2022-10-22T07:35:43;6.58;;;5.00;;
69220;SDS011;56331;51.992;20.910;2022-10-22T07:38:09;7.17;;;5.08;;
69220;SDS011;56331;51.992;20.910;2022-10-22T07:40:35;9.95;;;5.12;;
69220;SDS011;56331;51.992;20.910;2022-10-22T07:43:02;7.30;;;4.78;;
69220;SDS011;56331;51.992;20.910;2022-10-22T07:45:28;7.55;;;4.62;;
69220;SDS011;56331;51.992;20.910;2022-10-22T07:47:55;7.37;;;5.00;;
69220;SDS011;56331;51.992;20.910;2022-10-22T07:50:21;7.08;;;4.92;;
69220;SDS011;56331;51.992;20.910;2022-10-22T07:52:47;5.50;;;4.30;;
69220;SDS011;56331;51.992;20.910;2022-10-22T07:55:14;6.20;;;4.80;;
69220;SDS011;56331;51.992;20.910;2022-10-22T07:57:40;6.60;;;4.37;;
69220;SDS011;56331;51.992;20.910;2022-10-22T08:00:07;5.97;;;4.50;;
69220;SDS011;56331;51.992;20.910;2022-10-22T08:02:34;6.65;;;4.40;;
69220;SDS011;56331;51.992;20.910;2022-10-22T08:05:01;7.87;;;4.37;;
69220;SDS011;56331;51.992;20.910;2022-10-22T08:07:27;6.35;;;4.30;;
69220;SDS011;56331;51.992;20.910;2022-10-22T08:09:54;7.78;;;4.25;;
69220;SDS011;56331;51.992;20.910;2022-10-22T08:12:21;5.80;;;4.15;;
69220;SDS011;56331;51.992;20.910;2022-10-22T08:14:47;6.00;;;4.03;;
69220;SDS011;56331;51.992;20.910;2022-10-22T08:17:13;5.75;;;3.87;;
69220;SDS011;56331;51.992;20.910;2022-10-22T08:19:39;6.95;;;4.70;;
69220;SDS011;56331;51.992;20.910;2022-10-22T08:22:06;8.13;;;4.17;;
69220;SDS011;56331;51.992;20.910;2022-10-22T08:24:32;6.37;;;4.15;;
69220;SDS011;56331;51.992;20.910;2022-10-22T08:26:59;7.25;;;4.10;;
69220;SDS011;56331;51.992;20.910;2022-10-22T08:29:25;6.65;;;4.03;;
69220;SDS011;56331;51.992;20.910;2022-10-22T08:31:52;6.65;;;3.95;;
69220;SDS011;56331;51.992;20.910;2022-10-22T08:34:21;6.58;;;3.95;;
69220;SDS011;56331;51.992;20.910;2022-10-22T08:36:47;6.00;;;3.77;;
69220;SDS011;56331;51.992;20.910;2022-10-22T08:39:13;7.78;;;4.10;;
69220;SDS011;56331;51.992;20.910;2022-10-22T08:44:41;5.40;;;3.83;;
69220;SDS011;56331;51.992;20.910;2022-10-22T08:49:42;5.15;;;3.85;;
69220;SDS011;56331;51.992;20.910;2022-10-22T08:52:13;5.47;;;3.60;;
69220;SDS011;56331;51.992;20.910;2022-10-22T08:57:20;5.53;;;4.05;;
69220;SDS011;56331;51.992;20.910;2022-10-22T08:59:56;4.70;;;3.70;;
69220;SDS011;56331;51.992;20.910;2022-10-22T09:05:15;5.42;;;3.70;;
69220;SDS011;56331;51.992;20.910;2022-10-22T09:07:30;5.15;;;3.80;;
69220;SDS011;56331;51.992;20.910;2022-10-22T09:09:56;5.10;;;3.30;;
69220;SDS011;56331;51.992;20.910;2022-10-22T09:12:25;6.17;;;3.67;;
69220;SDS011;56331;51.992;20.910;2022-10-22T09:14:53;4.72;;;3.62;;
69220;SDS011;56331;51.992;20.910;2022-10-22T09:17:20;6.20;;;3.87;;
69220;SDS011;56331;51.992;20.910;2022-10-22T09:22:54;5.58;;;4.00;;
69220;SDS011;56331;51.992;20.910;2022-10-22T09:25:25;4.90;;;3.72;;
69220;SDS011;56331;51.992;20.910;2022-10-22T09:27:54;4.28;;;3.70;;
69220;SDS011;56331;51.992;20.910;2022-10-22T09:30:23;6.42;;;3.83;;
69220;SDS011;56331;51.992;20.910;2022-10-22T09:33:05;5.50;;;3.92;;
69220;SDS011;56331;51.992;20.910;2022-10-22T09:35:43;6.12;;;3.95;;
69220;SDS011;56331;51.992;20.910;2022-10-22T09:38:10;5.33;;;3.85;;
69220;SDS011;56331;51.992;20.910;2022-10-22T09:40:42;5.92;;;4.08;;
69220;SDS011;56331;51.992;20.910;2022-10-22T09:43:14;4.53;;;3.37;;
69220;SDS011;56331;51.992;20.910;2022-10-22T09:45:41;5.80;;;3.62;;
69220;SDS011;56331;51.992;20.910;2022-10-22T09:50:47;6.33;;;4.50;;
69220;SDS011;56331;51.992;20.910;2022-10-22T09:53:24;5.65;;;3.60;;
69220;SDS011;56331;51.992;20.910;2022-10-22T09:55:50;4.60;;;3.70;;
69220;SDS011;56331;51.992;20.910;2022-10-22T09:58:19;6.67;;;3.70;;
69220;SDS011;56331;51.992;20.910;2022-10-22T10:00:47;5.80;;;3.85;;
69220;SDS011;56331;51.992;20.910;2022-10-22T10:03:20;5.85;;;3.85;;
69220;SDS011;56331;51.992;20.910;2022-10-22T10:08:12;5.42;;;4.00;;
69220;SDS011;56331;51.992;20.910;2022-10-22T10:10:40;5.53;;;3.87;;
69220;SDS011;56331;51.992;20.910;2022-10-22T10:27:09;5.08;;;3.90;;
69220;SDS011;56331;51.992;20.910;2022-10-22T10:29:40;5.33;;;3.62;;
69220;SDS011;56331;51.992;20.910;2022-10-22T10:43:24;5.97;;;3.70;;
69220;SDS011;56331;51.992;20.910;2022-10-22T10:57:02;5.10;;;3.55;;
69220;SDS011;56331;51.992;20.910;2022-10-22T10:59:46;5.22;;;3.72;;
69220;SDS011;56331;51.992;20.910;2022-10-22T11:07:57;4.75;;;3.45;;
69220;SDS011;56331;51.992;20.910;2022-10-22T11:10:32;5.03;;;3.72;;
69220;SDS011;56331;51.992;20.910;2022-10-22T11:13:02;6.35;;;3.67;;
69220;SDS011;56331;51.992;20.910;2022-10-22T11:18:00;5.05;;;3.75;;
69220;SDS011;56331;51.992;20.910;2022-10-22T11:20:48;4.35;;;3.25;;
69220;SDS011;56331;51.992;20.910;2022-10-22T11:23:15;4.80;;;3.62;;
69220;SDS011;56331;51.992;20.910;2022-10-22T11:25:45;4.83;;;3.45;;
69220;SDS011;56331;51.992;20.910;2022-10-22T11:28:16;4.30;;;3.30;;
69220;SDS011;56331;51.992;20.910;2022-10-22T11:30:44;5.60;;;3.30;;
69220;SDS011;56331;51.992;20.910;2022-10-22T11:33:14;5.42;;;3.42;;
69220;SDS011;56331;51.992;20.910;2022-10-22T11:38:15;5.15;;;3.72;;
69220;SDS011;56331;51.992;20.910;2022-10-22T11:40:45;6.80;;;3.72;;
69220;SDS011;56331;51.992;20.910;2022-10-22T11:46:02;4.15;;;3.20;;
69220;SDS011;56331;51.992;20.910;2022-10-22T11:48:36;4.70;;;3.40;;
69220;SDS011;56331;51.992;20.910;2022-10-22T11:51:03;5.45;;;3.60;;
69220;SDS011;56331;51.992;20.910;2022-10-22T12:04:32;5.67;;;4.25;;
69220;SDS011;56331;51.992;20.910;2022-10-22T12:06:24;5.42;;;4.03;;
69220;SDS011;56331;51.992;20.910;2022-10-22T12:11:38;5.85;;;4.08;;
69220;SDS011;56331;51.992;20.910;2022-10-22T12:14:21;6.22;;;4.37;;
69220;SDS011;56331;51.992;20.910;2022-10-22T12:16:57;5.22;;;3.92;;
69220;SDS011;56331;51.992;20.910;2022-10-22T12:19:35;6.83;;;3.95;;
69220;SDS011;56331;51.992;20.910;2022-10-22T12:22:11;5.22;;;4.00;;
69220;SDS011;56331;51.992;20.910;2022-10-22T12:24:37;7.25;;;4.17;;
69220;SDS011;56331;51.992;20.910;2022-10-22T12:27:22;6.08;;;4.10;;
69220;SDS011;56331;51.992;20.910;2022-10-22T12:30:00;6.50;;;3.95;;
69220;SDS011;56331;51.992;20.910;2022-10-22T12:32:37;6.83;;;4.90;;
69220;SDS011;56331;51.992;20.910;2022-10-22T12:35:10;6.15;;;4.58;;
69220;SDS011;56331;51.992;20.910;2022-10-22T12:37:34;7.08;;;4.25;;
69220;SDS011;56331;51.992;20.910;2022-10-22T12:42:59;5.53;;;3.98;;
69220;SDS011;56331;51.992;20.910;2022-10-22T12:45:28;7.37;;;5.00;;
69220;SDS011;56331;51.992;20.910;2022-10-22T12:47:58;6.50;;;4.83;;
69220;SDS011;56331;51.992;20.910;2022-10-22T12:50:33;8.55;;;4.65;;
69220;SDS011;56331;51.992;20.910;2022-10-22T12:53:05;6.42;;;4.78;;
69220;SDS011;56331;51.992;20.910;2022-10-22T12:55:33;5.97;;;4.65;;
69220;SDS011;56331;51.992;20.910;2022-10-22T12:58:03;5.80;;;4.65;;
69220;SDS011;56331;51.992;20.910;2022-10-22T13:02:58;6.00;;;4.70;;
69220;SDS011;56331;51.992;20.910;2022-10-22T13:05:30;5.47;;;4.35;;
69220;SDS011;56331;51.992;20.910;2022-10-22T13:10:37;5.97;;;4.40;;
69220;SDS011;56331;51.992;20.910;2022-10-22T13:13:06;7.70;;;5.12;;
69220;SDS011;56331;51.992;20.910;2022-10-22T13:15:35;5.83;;;4.25;;
69220;SDS011;56331;51.992;20.910;2022-10-22T13:18:04;6.35;;;4.50;;
69220;SDS011;56331;51.992;20.910;2022-10-22T13:20:49;7.20;;;4.45;;
69220;SDS011;56331;51.992;20.910;2022-10-22T13:23:21;7.17;;;5.03;;
69220;SDS011;56331;51.992;20.910;2022-10-22T13:26:23;7.03;;;4.67;;
69220;SDS011;56331;51.992;20.910;2022-10-22T13:28:25;5.53;;;4.33;;
69220;SDS011;56331;51.992;20.910;2022-10-22T13:30:53;7.00;;;5.00;;
69220;SDS011;56331;51.992;20.910;2022-10-22T13:33:26;6.12;;;4.87;;
69220;SDS011;56331;51.992;20.910;2022-10-22T13:36:05;5.30;;;4.00;;
69220;SDS011;56331;51.992;20.910;2022-10-22T13:38:31;6.05;;;4.60;;
69220;SDS011;56331;51.992;20.910;2022-10-22T13:40:58;5.83;;;4.30;;
69220;SDS011;56331;51.992;20.910;2022-10-22T13:43:24;6.72;;;4.22;;
69220;SDS011;56331;51.992;20.910;2022-10-22T13:45:52;6.30;;;4.60;;
69220;SDS011;56331;51.992;20.910;2022-10-22T13:48:20;7.08;;;4.65;;
69220;SDS011;56331;51.992;20.910;2022-10-22T13:50:49;8.33;;;4.78;;
69220;SDS011;56331;51.992;20.910;2022-10-22T13:53:20;6.85;;;4.58;;
69220;SDS011;56331;51.992;20.910;2022-10-22T13:55:49;6.65;;;4.62;;
69220;SDS011;56331;51.992;20.910;2022-10-22T13:58:16;5.42;;;4.40;;
69220;SDS011;56331;51.992;20.910;2022-10-22T14:00:46;6.33;;;4.80;;
69220;SDS011;56331;51.992;20.910;2022-10-22T14:05:41;6.03;;;4.35;;
69220;SDS011;56331;51.992;20.910;2022-10-22T14:08:14;5.65;;;4.17;;
69220;SDS011;56331;51.992;20.910;2022-10-22T14:13:09;6.67;;;4.65;;
69220;SDS011;56331;51.992;20.910;2022-10-22T14:15:36;7.45;;;4.80;;
69220;SDS011;56331;51.992;20.910;2022-10-22T14:18:03;5.65;;;4.60;;
69220;SDS011;56331;51.992;20.910;2022-10-22T14:20:32;5.83;;;4.00;;
69220;SDS011;56331;51.992;20.910;2022-10-22T14:23:22;5.83;;;4.42;;
69220;SDS011;56331;51.992;20.910;2022-10-22T14:25:42;7.97;;;4.83;;
69220;SDS011;56331;51.992;20.910;2022-10-22T14:28:12;6.40;;;4.17;;
69220;SDS011;56331;51.992;20.910;2022-10-22T14:30:38;7.00;;;4.75;;
69220;SDS011;56331;51.992;20.910;2022-10-22T14:33:19;6.62;;;4.85;;
69220;SDS011;56331;51.992;20.910;2022-10-22T14:35:48;7.85;;;5.30;;
69220;SDS011;56331;51.992;20.910;2022-10-22T14:38:15;6.67;;;5.30;;
69220;SDS011;56331;51.992;20.910;2022-10-22T14:40:41;6.67;;;5.30;;
69220;SDS011;56331;51.992;20.910;2022-10-22T14:43:13;7.87;;;5.70;;
69220;SDS011;56331;51.992;20.910;2022-10-22T14:45:45;8.65;;;5.33;;
69220;SDS011;56331;51.992;20.910;2022-10-22T14:48:12;6.62;;;5.08;;
69220;SDS011;56331;51.992;20.910;2022-10-22T14:50:38;6.17;;;4.97;;
69220;SDS011;56331;51.992;20.910;2022-10-22T14:53:04;7.40;;;5.22;;
69220;SDS011;56331;51.992;20.910;2022-10-22T14:55:30;6.83;;;5.15;;
69220;SDS011;56331;51.992;20.910;2022-10-22T14:57:57;6.85;;;5.42;;
69220;SDS011;56331;51.992;20.910;2022-10-22T15:00:23;7.85;;;5.60;;
69220;SDS011;56331;51.992;20.910;2022-10-22T15:02:49;7.30;;;5.50;;
69220;SDS011;56331;51.992;20.910;2022-10-22T15:05:16;7.22;;;5.33;;
69220;SDS011;56331;51.992;20.910;2022-10-22T15:07:42;8.10;;;5.35;;
69220;SDS011;56331;51.992;20.910;2022-10-22T15:10:10;6.90;;;5.37;;
69220;SDS011;56331;51.992;20.910;2022-10-22T15:12:36;8.23;;;6.00;;
69220;SDS011;56331;51.992;20.910;2022-10-22T15:15:03;7.72;;;5.97;;
69220;SDS011;56331;51.992;20.910;2022-10-22T15:17:30;8.03;;;5.80;;
69220;SDS011;56331;51.992;20.910;2022-10-22T15:19:56;8.53;;;6.22;;
69220;SDS011;56331;51.992;20.910;2022-10-22T15:22:24;8.38;;;6.12;;
69220;SDS011;56331;51.992;20.910;2022-10-22T15:24:51;7.70;;;6.20;;
69220;SDS011;56331;51.992;20.910;2022-10-22T15:27:18;8.13;;;5.65;;
69220;SDS011;56331;51.992;20.910;2022-10-22T15:29:44;9.40;;;6.17;;
69220;SDS011;56331;51.992;20.910;2022-10-22T15:32:11;7.37;;;5.35;;
69220;SDS011;56331;51.992;20.910;2022-10-22T15:34:38;7.30;;;5.30;;
69220;SDS011;56331;51.992;20.910;2022-10-22T15:37:05;8.05;;;5.20;;
69220;SDS011;56331;51.992;20.910;2022-10-22T15:39:33;6.90;;;5.30;;
69220;SDS011;56331;51.992;20.910;2022-10-22T15:42:00;7.33;;;5.40;;
69220;SDS011;56331;51.992;20.910;2022-10-22T15:44:28;7.62;;;5.50;;
69220;SDS011;56331;51.992;20.910;2022-10-22T15:46:55;8.25;;;5.62;;
69220;SDS011;56331;51.992;20.910;2022-10-22T15:49:23;7.37;;;5.60;;
69220;SDS011;56331;51.992;20.910;2022-10-22T15:51:51;7.00;;;5.25;;
69220;SDS011;56331;51.992;20.910;2022-10-22T15:54:22;7.10;;;5.35;;
69220;SDS011;56331;51.992;20.910;2022-10-22T15:56:49;8.13;;;5.45;;
69220;SDS011;56331;51.992;20.910;2022-10-22T15:59:16;7.62;;;5.50;;
69220;SDS011;56331;51.992;20.910;2022-10-22T16:01:43;9.15;;;5.10;;
69220;SDS011;56331;51.992;20.910;2022-10-22T16:04:10;7.97;;;5.35;;
69220;SDS011;56331;51.992;20.910;2022-10-22T16:06:39;7.35;;;5.22;;
69220;SDS011;56331;51.992;20.910;2022-10-22T16:09:08;6.65;;;4.92;;
69220;SDS011;56331;51.992;20.910;2022-10-22T16:11:39;7.17;;;5.37;;
69220;SDS011;56331;51.992;20.910;2022-10-22T16:14:06;6.90;;;5.35;;
69220;SDS011;56331;51.992;20.910;2022-10-22T16:16:34;6.58;;;5.42;;
69220;SDS011;56331;51.992;20.910;2022-10-22T16:19:01;7.00;;;5.53;;
69220;SDS011;56331;51.992;20.910;2022-10-22T16:21:28;6.75;;;4.72;;
69220;SDS011;56331;51.992;20.910;2022-10-22T16:23:54;8.03;;;5.20;;
69220;SDS011;56331;51.992;20.910;2022-10-22T16:26:20;6.45;;;5.08;;
69220;SDS011;56331;51.992;20.910;2022-10-22T16:28:47;7.05;;;5.53;;
69220;SDS011;56331;51.992;20.910;2022-10-22T16:31:14;6.60;;;5.08;;
69220;SDS011;56331;51.992;20.910;2022-10-22T16:33:42;7.70;;;5.17;;
69220;SDS011;56331;51.992;20.910;2022-10-22T16:36:09;6.80;;;5.08;;
69220;SDS011;56331;51.992;20.910;2022-10-22T16:38:36;6.67;;;5.40;;
69220;SDS011;56331;51.992;20.910;2022-10-22T16:41:06;5.80;;;4.95;;
69220;SDS011;56331;51.992;20.910;2022-10-22T16:43:33;7.22;;;5.30;;
69220;SDS011;56331;51.992;20.910;2022-10-22T16:46:00;7.62;;;5.30;;
69220;SDS011;56331;51.992;20.910;2022-10-22T16:48:26;7.75;;;5.47;;
69220;SDS011;56331;51.992;20.910;2022-10-22T16:50:52;9.03;;;5.72;;